createdAt,value
2018-06-10T00:01:23.063Z,34.93
2018-06-10T00:03:52.261Z,28.60
2018-06-10T00:06:21.493Z,29.33
2018-06-10T00:08:50.664Z,28.43
2018-06-10T00:11:19.859Z,32.40
2018-06-10T00:13:49.090Z,32.13
2018-06-10T00:16:18.261Z,37.23
2018-06-10T00:18:47.502Z,41.43
2018-06-10T00:21:16.677Z,37.97
2018-06-10T00:23:45.943Z,35.53
2018-06-10T00:26:15.121Z,32.03
2018-06-10T00:28:49.752Z,34.53
2018-06-10T00:31:18.963Z,29.67
2018-06-10T00:33:48.188Z,34.23
2018-06-10T00:36:17.650Z,35.33
2018-06-10T00:38:46.840Z,34.27
2018-06-10T00:41:16.089Z,32.20
2018-06-10T00:43:45.300Z,30.27
2018-06-10T00:46:14.468Z,28.50
2018-06-10T00:48:43.761Z,32.10
2018-06-10T00:51:13.125Z,37.73
2018-06-10T00:53:42.355Z,36.40
2018-06-10T00:56:29.574Z,30.43
2018-06-10T00:58:58.717Z,29.90
2018-06-10T01:01:29.134Z,38.50
2018-06-10T01:03:58.530Z,37.60
2018-06-10T01:06:27.871Z,31.80
2018-06-10T01:08:57.104Z,38.50
2018-06-10T01:11:26.341Z,33.70
2018-06-10T01:13:55.504Z,29.73
2018-06-10T01:16:24.829Z,31.97
2018-06-10T01:18:54.112Z,36.90
2018-06-10T01:21:23.305Z,44.97
2018-06-10T01:23:52.688Z,35.97
2018-06-10T01:26:27.029Z,35.93
2018-06-10T01:28:56.215Z,33.73
2018-06-10T01:31:25.446Z,35.37
2018-06-10T01:33:54.729Z,41.13
2018-06-10T01:36:23.924Z,37.37
2018-06-10T01:38:53.137Z,31.03
2018-06-10T01:41:22.370Z,37.23
2018-06-10T01:43:51.606Z,49.30
2018-06-10T01:46:20.832Z,38.00
2018-06-10T01:48:50.066Z,42.23
2018-06-10T01:51:19.250Z,40.63
2018-06-10T01:53:49.820Z,43.53
2018-06-10T01:56:19.051Z,31.67
2018-06-10T01:58:48.273Z,36.53
2018-06-10T02:01:17.423Z,37.60
2018-06-10T02:03:46.593Z,36.57
2018-06-10T02:06:15.802Z,34.20
2018-06-10T02:08:44.976Z,37.13
2018-06-10T02:11:14.136Z,43.10
2018-06-10T02:13:43.366Z,31.93
2018-06-10T02:16:12.496Z,36.57
2018-06-10T02:18:41.703Z,32.60
2018-06-10T02:21:10.893Z,32.57
2018-06-10T02:23:40.072Z,40.07
2018-06-10T02:26:09.305Z,35.07
2018-06-10T02:28:38.456Z,33.03
2018-06-10T02:31:07.631Z,35.43
2018-06-10T02:33:36.830Z,36.47
2018-06-10T02:36:06.003Z,37.90
2018-06-10T02:38:35.375Z,35.87
2018-06-10T02:41:04.674Z,35.70
2018-06-10T02:43:33.856Z,36.03
2018-06-10T02:46:03.029Z,44.20
2018-06-10T02:48:32.150Z,34.47
2018-06-10T02:51:01.310Z,37.27
2018-06-10T02:53:30.471Z,39.20
2018-06-10T02:55:59.659Z,30.23
2018-06-10T02:58:28.968Z,36.33
2018-06-10T03:00:58.176Z,40.87
2018-06-10T03:03:27.407Z,38.83
2018-06-10T03:05:56.623Z,38.43
2018-06-10T03:08:25.937Z,42.47
2018-06-10T03:10:55.113Z,33.47
2018-06-10T03:13:24.316Z,33.77
2018-06-10T03:15:53.544Z,33.57
2018-06-10T03:18:22.781Z,35.93
2018-06-10T03:20:51.977Z,32.70
2018-06-10T03:23:21.139Z,31.13
2018-06-10T03:25:50.402Z,35.73
2018-06-10T03:28:19.582Z,31.93
2018-06-10T03:30:48.725Z,35.77
2018-06-10T03:33:17.934Z,33.60
2018-06-10T03:35:47.093Z,30.53
2018-06-10T03:38:16.291Z,32.90
2018-06-10T03:40:45.574Z,35.60
2018-06-10T03:43:14.760Z,42.77
2018-06-10T03:45:43.971Z,33.93
2018-06-10T03:48:13.130Z,37.33
2018-06-10T03:50:42.330Z,31.37
2018-06-10T03:53:11.493Z,34.40
2018-06-10T03:55:40.684Z,33.93
2018-06-10T03:58:09.942Z,41.60
2018-06-10T04:00:39.134Z,35.97
2018-06-10T04:03:08.373Z,37.00
2018-06-10T04:05:37.535Z,32.83
2018-06-10T04:08:06.793Z,40.47
2018-06-10T04:10:36.014Z,32.03
2018-06-10T04:13:05.207Z,35.03
2018-06-10T04:15:34.490Z,31.60
2018-06-10T04:18:03.709Z,31.53
2018-06-10T04:20:32.862Z,31.70
2018-06-10T04:23:02.052Z,40.50
2018-06-10T04:25:31.219Z,35.23
2018-06-10T04:28:00.398Z,31.67
2018-06-10T04:30:29.567Z,32.40
2018-06-10T04:32:58.783Z,32.33
2018-06-10T04:35:27.944Z,34.23
2018-06-10T04:37:57.147Z,33.13
2018-06-10T04:40:26.451Z,33.17
2018-06-10T04:42:55.785Z,33.70
2018-06-10T04:45:25.005Z,32.47
2018-06-10T04:47:54.203Z,32.10
2018-06-10T04:50:23.359Z,32.70
2018-06-10T04:52:52.584Z,38.00
2018-06-10T04:55:21.823Z,31.73
2018-06-10T04:57:51.117Z,32.43
2018-06-10T05:00:20.365Z,35.73
2018-06-10T05:16:22.110Z,43.63
2018-06-10T05:18:51.239Z,37.17
2018-06-10T05:21:20.412Z,33.10
2018-06-10T05:23:49.541Z,32.70
2018-06-10T05:26:18.690Z,40.53
2018-06-10T05:28:47.804Z,33.30
2018-06-10T05:31:16.998Z,30.87
2018-06-10T05:33:46.103Z,34.03
2018-06-10T05:36:15.262Z,31.40
2018-06-10T05:38:44.393Z,33.23
2018-06-10T05:41:13.571Z,38.57
2018-06-10T05:43:43.271Z,29.63
2018-06-10T05:46:12.537Z,38.17
2018-06-10T05:48:41.696Z,36.73
2018-06-10T05:51:10.900Z,31.83
2018-06-10T05:53:40.058Z,31.90
2018-06-10T05:56:09.190Z,35.50
2018-06-10T05:58:38.367Z,30.70
2018-06-10T06:01:07.512Z,31.70
2018-06-10T06:03:36.647Z,32.87
2018-06-10T06:06:05.871Z,31.10
2018-06-10T06:08:34.968Z,37.20
2018-06-10T06:11:04.158Z,32.47
2018-06-10T06:13:33.318Z,32.30
2018-06-10T06:16:02.477Z,29.10
2018-06-10T06:18:31.633Z,35.20
2018-06-10T06:21:00.759Z,30.10
2018-06-10T06:23:29.949Z,32.93
2018-06-10T06:25:59.145Z,32.43
2018-06-10T06:28:28.330Z,43.27
2018-06-10T06:30:57.440Z,27.83
2018-06-10T06:33:26.596Z,31.93
2018-06-10T06:35:55.707Z,25.93
2018-06-10T06:38:24.857Z,30.27
2018-06-10T06:40:54.058Z,29.20
2018-06-10T06:43:23.241Z,32.40
2018-06-10T06:45:52.446Z,31.13
2018-06-10T06:48:21.573Z,39.00
2018-06-10T06:50:50.715Z,30.13
2018-06-10T06:53:19.836Z,31.27
2018-06-10T06:55:49.035Z,32.23
2018-06-10T06:58:18.153Z,33.33
2018-06-10T07:00:47.369Z,37.53
2018-06-10T07:03:16.476Z,32.00
2018-06-10T07:05:45.574Z,29.50
2018-06-10T07:08:14.736Z,32.30
2018-06-10T07:10:43.885Z,33.23
2018-06-10T07:13:12.784Z,28.23
2018-06-10T07:15:41.987Z,27.37
2018-06-10T07:18:11.104Z,33.07
2018-06-10T07:20:40.293Z,27.37
2018-06-10T07:23:09.465Z,32.70
2018-06-10T07:25:38.600Z,29.27
2018-06-10T07:28:07.765Z,24.10
2018-06-10T07:30:36.969Z,25.60
2018-06-10T07:33:06.103Z,25.50
2018-06-10T07:35:35.253Z,25.30
2018-06-10T07:38:04.404Z,20.97
2018-06-10T07:40:33.565Z,22.20
2018-06-10T07:43:03.303Z,21.00
2018-06-10T07:45:32.549Z,22.07
2018-06-10T07:48:01.735Z,19.87
2018-06-10T07:50:30.919Z,24.30
2018-06-10T07:53:00.046Z,18.67
2018-06-10T07:55:29.263Z,21.47
2018-06-10T07:57:58.401Z,20.07
2018-06-10T08:00:27.555Z,17.80
2018-06-10T08:02:56.777Z,18.73
2018-06-10T08:05:25.939Z,20.07
2018-06-10T08:07:55.060Z,19.50
2018-06-10T08:10:24.157Z,20.27
2018-06-10T08:12:53.368Z,19.20
2018-06-10T08:15:22.557Z,22.90
2018-06-10T08:17:51.683Z,19.00
2018-06-10T08:20:20.614Z,16.20
2018-06-10T08:22:49.816Z,15.20
2018-06-10T08:25:19.046Z,18.13
2018-06-10T08:27:48.251Z,19.67
2018-06-10T08:30:17.444Z,20.20
2018-06-10T08:32:46.644Z,25.00
2018-06-10T08:35:15.801Z,17.37
2018-06-10T08:37:44.953Z,23.10
2018-06-10T08:40:14.046Z,21.37
2018-06-10T08:42:43.209Z,18.77
2018-06-10T08:45:12.387Z,17.23
2018-06-10T08:47:41.554Z,20.93
2018-06-10T08:50:10.630Z,18.10
2018-06-10T08:52:39.787Z,20.00
2018-06-10T08:55:08.904Z,19.57
2018-06-10T08:57:38.043Z,19.97
2018-06-10T09:00:07.302Z,20.93
2018-06-10T09:02:36.460Z,18.40
2018-06-10T09:05:05.492Z,22.10
2018-06-10T09:07:34.654Z,19.57
2018-06-10T09:10:03.789Z,23.40
2018-06-10T09:12:32.889Z,20.70
2018-06-10T09:15:02.045Z,19.50
2018-06-10T09:17:31.230Z,25.43
2018-06-10T09:20:00.366Z,19.00
2018-06-10T09:22:29.530Z,18.13
2018-06-10T09:24:58.744Z,17.60
2018-06-10T09:27:27.925Z,21.67
2018-06-10T09:29:57.060Z,18.10
2018-06-10T09:32:26.242Z,20.07
2018-06-10T09:34:55.455Z,19.27
2018-06-10T09:37:24.600Z,22.27
2018-06-10T09:39:53.746Z,17.00
2018-06-10T09:42:22.842Z,19.20
2018-06-10T09:44:51.993Z,21.37
2018-06-10T09:47:21.175Z,20.30
2018-06-10T09:49:50.349Z,18.43
2018-06-10T09:52:19.490Z,20.50
2018-06-10T09:54:48.645Z,18.73
2018-06-10T09:57:17.743Z,23.50
2018-06-10T09:59:46.986Z,19.33
2018-06-10T10:02:16.156Z,26.70
2018-06-10T10:04:45.347Z,19.13
2018-06-10T10:07:14.653Z,21.80
2018-06-10T10:09:43.866Z,17.83
2018-06-10T10:12:12.965Z,18.53
2018-06-10T10:14:42.232Z,19.53
2018-06-10T10:17:11.379Z,17.33
2018-06-10T10:19:40.495Z,22.57
2018-06-10T10:22:09.670Z,25.20
2018-06-10T10:24:38.796Z,21.10
2018-06-10T10:27:07.990Z,20.57
2018-06-10T10:29:37.132Z,29.07
2018-06-10T10:32:06.374Z,20.80
2018-06-10T10:34:35.520Z,23.37
2018-06-10T10:37:04.634Z,28.23
2018-06-10T10:39:34.281Z,16.83
2018-06-10T10:42:03.413Z,19.40
2018-06-10T10:44:33.972Z,18.10
2018-06-10T10:47:03.170Z,18.63
2018-06-10T10:49:32.312Z,15.13
2018-06-10T10:52:01.505Z,18.40
2018-06-10T10:54:30.372Z,20.47
2018-06-10T10:56:59.476Z,25.07
2018-06-10T10:59:28.667Z,16.07
2018-06-10T11:01:57.904Z,28.07
2018-06-10T11:04:27.041Z,21.17
2018-06-10T11:06:56.180Z,22.20
2018-06-10T11:09:25.329Z,21.57
2018-06-10T11:11:54.480Z,27.33
2018-06-10T11:14:23.665Z,15.17
2018-06-10T11:16:52.886Z,17.13
2018-06-10T11:19:21.988Z,21.30
2018-06-10T11:21:51.101Z,18.60
2018-06-10T11:24:20.242Z,20.60
2018-06-10T11:26:49.370Z,17.53
2018-06-10T11:29:18.501Z,22.33
2018-06-10T11:31:47.609Z,16.53
2018-06-10T11:34:16.742Z,17.43
2018-06-10T11:36:45.897Z,16.67
2018-06-10T11:39:15.009Z,18.83
2018-06-10T11:41:44.198Z,17.43
2018-06-10T11:44:13.394Z,19.57
2018-06-10T11:46:42.538Z,20.70
2018-06-10T11:49:11.609Z,16.20
2018-06-10T11:51:40.725Z,15.80
2018-06-10T11:54:09.841Z,22.97
2018-06-10T11:56:39.037Z,24.43
2018-06-10T11:59:08.186Z,18.60
2018-06-10T12:01:37.367Z,22.00
2018-06-10T12:07:03.682Z,27.27
2018-06-10T12:09:32.809Z,26.40
2018-06-10T12:12:01.953Z,21.33
2018-06-10T12:14:31.115Z,20.87
2018-06-10T12:17:00.271Z,24.80
2018-06-10T12:19:29.459Z,25.70
2018-06-10T12:21:58.573Z,30.50
2018-06-10T12:24:27.720Z,24.37
2018-06-10T12:26:56.901Z,23.67
2018-06-10T12:29:26.073Z,26.10
2018-06-10T12:31:55.203Z,32.67
2018-06-10T12:34:24.376Z,31.03
2018-06-10T12:36:53.520Z,37.67
2018-06-10T12:39:22.719Z,50.60
2018-06-10T12:41:51.845Z,29.73
2018-06-10T12:44:21.550Z,40.70
2018-06-10T12:46:50.700Z,48.10
2018-06-10T12:49:19.888Z,37.67
2018-06-10T12:51:49.084Z,33.93
2018-06-10T12:54:18.202Z,28.23
2018-06-10T12:56:47.377Z,26.40
2018-06-10T12:59:16.554Z,24.30
2018-06-10T13:01:45.733Z,28.00
2018-06-10T13:04:14.884Z,28.67
2018-06-10T13:06:43.785Z,30.63
2018-06-10T13:09:13.011Z,22.20
2018-06-10T13:11:42.200Z,25.20
2018-06-10T13:14:11.349Z,23.37
2018-06-10T13:16:40.576Z,18.37
2018-06-10T13:19:09.762Z,23.10
2018-06-10T13:21:38.847Z,22.93
2018-06-10T13:24:07.989Z,26.10
2018-06-10T13:26:37.230Z,19.13
2018-06-10T13:29:06.403Z,23.73
2018-06-10T13:31:35.657Z,24.00
2018-06-10T13:34:04.925Z,39.57
2018-06-10T13:36:34.154Z,28.50
2018-06-10T13:39:03.419Z,27.10
2018-06-10T13:41:32.625Z,30.10
2018-06-10T13:44:01.745Z,32.73
2018-06-10T13:46:30.864Z,30.97
2018-06-10T13:49:00.029Z,28.10
2018-06-10T13:51:29.229Z,45.00
2018-06-10T13:53:58.370Z,55.60
2018-06-10T13:56:27.538Z,36.70
2018-06-10T13:58:56.717Z,44.20
2018-06-10T14:01:25.907Z,36.40
2018-06-10T14:03:55.038Z,31.20
2018-06-10T14:06:24.148Z,43.13
2018-06-10T14:08:53.312Z,40.70
2018-06-10T14:11:22.509Z,38.80
2018-06-10T14:13:51.664Z,37.10
2018-06-10T14:16:20.875Z,38.00
2018-06-10T14:18:50.030Z,37.53
2018-06-10T14:21:19.197Z,40.13
2018-06-10T14:23:48.321Z,38.83
2018-06-10T14:26:17.483Z,41.50
2018-06-10T14:28:46.608Z,47.10
2018-06-10T14:31:15.815Z,30.33
2018-06-10T14:33:44.960Z,38.87
2018-06-10T14:36:14.181Z,31.93
2018-06-10T14:38:43.321Z,33.33
2018-06-10T14:41:12.459Z,31.70
2018-06-10T14:43:41.699Z,31.77
2018-06-10T14:46:10.892Z,36.70
2018-06-10T14:48:40.059Z,47.90
2018-06-10T14:51:09.240Z,51.87
2018-06-10T14:53:38.369Z,47.07
2018-06-10T14:56:07.523Z,36.20
2018-06-10T14:58:36.669Z,35.10
2018-06-10T15:01:05.885Z,41.97
2018-06-10T15:03:35.067Z,37.80
2018-06-10T15:06:04.214Z,24.47
2018-06-10T15:08:33.439Z,36.73
2018-06-10T15:11:02.655Z,33.10
2018-06-10T15:13:31.827Z,37.07
2018-06-10T15:16:00.970Z,35.77
2018-06-10T15:18:30.077Z,32.70
2018-06-10T15:20:59.246Z,33.60
2018-06-10T15:23:28.341Z,40.30
2018-06-10T15:25:57.585Z,36.27
2018-06-10T15:28:26.817Z,39.73
2018-06-10T15:30:55.950Z,40.23
2018-06-10T15:33:25.134Z,32.50
2018-06-10T15:35:54.273Z,36.60
2018-06-10T15:38:23.461Z,30.47
2018-06-10T15:40:52.562Z,37.90
2018-06-10T15:43:21.723Z,32.13
2018-06-10T15:45:50.901Z,24.63
2018-06-10T15:48:20.049Z,27.93
2018-06-10T15:50:49.254Z,26.93
2018-06-10T15:53:18.384Z,25.57
2018-06-10T15:55:47.608Z,33.13
2018-06-10T15:58:16.795Z,29.97
2018-06-10T16:00:45.971Z,23.30
2018-06-10T16:03:15.081Z,24.70
2018-06-10T16:05:44.260Z,16.20
2018-06-10T16:08:13.380Z,25.50
2018-06-10T16:10:42.563Z,26.20
2018-06-10T16:13:12.160Z,20.87
2018-06-10T16:15:41.141Z,17.53
2018-06-10T16:18:10.279Z,24.40
2018-06-10T16:20:39.502Z,21.43
2018-06-10T16:23:08.866Z,22.70
2018-06-10T16:25:38.014Z,18.40
2018-06-10T16:28:07.236Z,15.13
2018-06-10T16:30:36.336Z,20.57
2018-06-10T16:33:05.490Z,23.63
2018-06-10T16:35:34.622Z,20.00
2018-06-10T16:38:03.791Z,17.97
2018-06-10T16:40:32.937Z,18.60
2018-06-10T16:43:02.117Z,26.63
2018-06-10T16:45:31.294Z,19.07
2018-06-10T16:48:00.474Z,21.87
2018-06-10T16:50:29.565Z,24.13
2018-06-10T16:56:18.532Z,25.27
2018-06-10T16:58:47.612Z,22.87
2018-06-10T17:01:16.754Z,23.40
2018-06-10T17:03:45.954Z,28.60
2018-06-10T17:06:15.053Z,22.40
2018-06-10T17:08:44.244Z,24.67
2018-06-10T17:11:13.431Z,25.37
2018-06-10T17:13:42.614Z,24.17
2018-06-10T17:16:11.798Z,31.10
2018-06-10T17:18:41.043Z,21.70
2018-06-10T17:21:10.254Z,24.93
2018-06-10T17:23:39.414Z,30.60
2018-06-10T17:26:08.563Z,32.57
2018-06-10T17:28:37.730Z,33.33
2018-06-10T17:31:06.945Z,23.47
2018-06-10T17:33:36.159Z,24.77
2018-06-10T17:36:05.341Z,33.60
2018-06-10T17:38:34.643Z,27.17
2018-06-10T17:41:03.984Z,33.13
2018-06-10T17:43:33.203Z,27.50
2018-06-10T17:46:02.413Z,25.03
2018-06-10T17:48:31.644Z,30.10
2018-06-10T17:51:00.759Z,33.13
2018-06-10T17:53:29.944Z,30.70
2018-06-10T17:55:59.192Z,28.80
2018-06-10T17:58:28.442Z,29.23
2018-06-10T18:00:57.678Z,25.10
2018-06-10T18:03:26.854Z,33.40
2018-06-10T18:05:56.040Z,31.53
2018-06-10T18:08:25.255Z,32.10
2018-06-10T18:10:54.530Z,50.63
2018-06-10T18:13:23.752Z,29.07
2018-06-10T18:15:52.908Z,32.03
2018-06-10T18:18:22.113Z,30.27
2018-06-10T18:20:51.347Z,25.77
2018-06-10T18:23:20.576Z,26.17
2018-06-10T18:25:49.877Z,26.20
2018-06-10T18:28:19.175Z,28.20
2018-06-10T18:30:48.429Z,35.53
2018-06-10T18:33:17.624Z,27.30
2018-06-10T18:35:46.873Z,30.60
2018-06-10T18:38:16.093Z,28.43
2018-06-10T18:40:45.319Z,28.30
2018-06-10T18:43:14.604Z,36.10
2018-06-10T18:45:43.989Z,27.70
2018-06-10T18:48:13.227Z,41.50
2018-06-10T18:50:42.462Z,35.10
2018-06-10T18:53:11.776Z,27.57
2018-06-10T18:55:41.061Z,32.07
2018-06-10T18:58:10.495Z,31.27
2018-06-10T19:00:39.830Z,34.53
2018-06-10T19:03:09.281Z,33.27
2018-06-10T19:05:38.486Z,36.00
2018-06-10T19:08:07.728Z,34.93
2018-06-10T19:10:36.971Z,31.30
2018-06-10T19:13:06.258Z,35.90
2018-06-10T19:15:35.509Z,35.27
2018-06-10T19:18:04.885Z,31.90
2018-06-10T19:20:34.180Z,35.80
2018-06-10T19:23:03.414Z,34.57
2018-06-10T19:25:32.795Z,34.73
2018-06-10T19:28:02.197Z,32.47
2018-06-10T19:30:31.514Z,43.93
2018-06-10T19:33:00.709Z,34.17
2018-06-10T19:35:29.997Z,36.97
2018-06-10T19:37:59.328Z,30.77
2018-06-10T19:40:28.625Z,36.23
2018-06-10T19:42:57.905Z,33.03
2018-06-10T19:45:27.201Z,38.33
2018-06-10T19:47:56.454Z,40.30
2018-06-10T19:50:25.728Z,32.77
2018-06-10T19:52:55.014Z,38.80
2018-06-10T19:55:24.392Z,44.20
2018-06-10T19:57:53.741Z,43.70
2018-06-10T20:00:23.050Z,50.40
2018-06-10T20:02:52.318Z,45.07
2018-06-10T20:05:21.585Z,40.90
2018-06-10T20:07:50.862Z,39.93
2018-06-10T20:10:20.143Z,42.23
2018-06-10T20:12:49.441Z,39.30
2018-06-10T20:15:18.694Z,30.57
2018-06-10T20:17:47.916Z,36.03
2018-06-10T20:20:17.126Z,37.63
2018-06-10T20:22:46.401Z,31.83
2018-06-10T20:25:15.642Z,33.63
2018-06-10T20:27:44.848Z,38.17
2018-06-10T20:30:14.119Z,41.73
2018-06-10T20:32:43.320Z,36.87
2018-06-10T20:35:12.597Z,37.97
2018-06-10T20:37:41.777Z,41.10
2018-06-10T20:40:11.022Z,44.83
2018-06-10T20:42:40.240Z,37.40
2018-06-10T20:45:09.444Z,40.83
2018-06-10T20:47:38.665Z,37.63
2018-06-10T20:50:07.961Z,37.17
2018-06-10T20:52:37.184Z,38.27
2018-06-10T20:55:06.460Z,38.13
2018-06-10T20:57:35.671Z,37.40
2018-06-10T21:00:04.918Z,42.23
2018-06-10T21:02:34.150Z,40.20
2018-06-10T21:05:03.392Z,36.33
2018-06-10T21:07:32.566Z,36.40
2018-06-10T21:10:01.741Z,35.73
2018-06-10T21:12:31.077Z,33.23
2018-06-10T21:15:00.224Z,39.03
2018-06-10T21:17:29.423Z,38.23
2018-06-10T21:19:58.616Z,35.67
2018-06-10T21:22:27.750Z,30.40
2018-06-10T21:24:56.905Z,35.00
2018-06-10T21:27:26.097Z,34.20
2018-06-10T21:29:55.227Z,32.93
2018-06-10T21:32:24.397Z,30.90
2018-06-10T21:34:53.694Z,37.17
2018-06-10T21:37:22.857Z,36.07
2018-06-10T21:39:52.003Z,36.33
2018-06-10T21:42:21.142Z,37.10
2018-06-10T21:44:50.342Z,42.87
2018-06-10T21:47:19.458Z,38.40
2018-06-10T21:49:48.655Z,40.00
2018-06-10T21:52:17.866Z,35.70
2018-06-10T21:54:46.974Z,34.63
2018-06-10T21:57:16.105Z,36.47
2018-06-10T21:59:45.334Z,44.90
2018-06-10T22:02:14.522Z,44.10
2018-06-10T22:04:43.609Z,47.40
2018-06-10T22:07:12.728Z,44.50
2018-06-10T22:09:42.145Z,42.00
2018-06-10T22:12:11.271Z,33.83
2018-06-10T22:14:40.439Z,34.43
2018-06-10T22:17:09.673Z,31.50
2018-06-10T22:19:38.816Z,31.37
2018-06-10T22:22:08.049Z,23.80
2018-06-10T22:24:37.238Z,26.87
2018-06-10T22:27:06.432Z,22.67
2018-06-10T22:29:35.603Z,34.57
2018-06-10T22:32:04.779Z,23.17
2018-06-10T22:34:34.005Z,20.10
2018-06-10T22:37:03.165Z,20.47
2018-06-10T22:39:32.358Z,23.17
2018-06-10T22:42:01.491Z,25.47
2018-06-10T22:44:30.672Z,20.63
2018-06-10T22:46:59.879Z,23.23
2018-06-10T22:49:29.034Z,20.00
2018-06-10T22:51:58.259Z,23.80
2018-06-10T22:54:39.844Z,19.37
2018-06-10T22:57:09.750Z,20.03
2018-06-10T22:59:39.035Z,24.40
2018-06-10T23:02:09.371Z,25.03
2018-06-10T23:04:38.613Z,25.83
2018-06-10T23:07:07.780Z,20.43
2018-06-10T23:09:36.946Z,28.77
2018-06-10T23:12:06.698Z,25.20
2018-06-10T23:14:35.949Z,27.43
2018-06-10T23:17:05.092Z,25.90
2018-06-10T23:19:35.140Z,25.10
2018-06-10T23:22:04.343Z,27.30
2018-06-10T23:24:33.547Z,24.40
2018-06-10T23:27:02.734Z,23.37
2018-06-10T23:29:31.901Z,30.43
2018-06-10T23:32:01.078Z,33.17
2018-06-10T23:34:30.238Z,27.20
2018-06-10T23:36:59.345Z,30.33
2018-06-10T23:39:28.539Z,31.93
2018-06-10T23:41:57.713Z,29.20
2018-06-10T23:44:26.874Z,36.40
2018-06-10T23:46:56.104Z,29.67
2018-06-10T23:49:25.328Z,28.67
2018-06-10T23:51:54.454Z,28.27
2018-06-10T23:54:23.578Z,31.33
2018-06-10T23:56:52.765Z,32.27
2018-06-10T23:59:21.951Z,28.70
